sensor_id;sensor_type;location;lat;lon;timestamp;temperature;humidity
12957;DHT22;6543;48.836;10.092;2022-08-19T00:01:56;19.60;99.90
12957;DHT22;6543;48.836;10.092;2022-08-19T00:04:25;19.60;99.90
12957;DHT22;6543;48.836;10.092;2022-08-19T00:06:52;19.50;99.90
12957;DHT22;6543;48.836;10.092;2022-08-19T00:09:21;19.50;99.90
12957;DHT22;6543;48.836;10.092;2022-08-19T00:11:52;19.40;99.90
12957;DHT22;6543;48.836;10.092;2022-08-19T00:14:22;19.30;99.90
12957;DHT22;6543;48.836;10.092;2022-08-19T00:16:49;19.30;99.90
12957;DHT22;6543;48.836;10.092;2022-08-19T00:19:20;19.20;99.90
12957;DHT22;6543;48.836;10.092;2022-08-19T00:21:48;19.10;99.90
12957;DHT22;6543;48.836;10.092;2022-08-19T00:24:15;19.00;99.90
12957;DHT22;6543;48.836;10.092;2022-08-19T00:26:43;18.90;99.90
12957;DHT22;6543;48.836;10.092;2022-08-19T00:29:13;18.90;99.90
12957;DHT22;6543;48.836;10.092;2022-08-19T00:31:41;18.80;99.90
12957;DHT22;6543;48.836;10.092;2022-08-19T00:34:08;18.80;99.90
12957;DHT22;6543;48.836;10.092;2022-08-19T00:36:36;18.80;99.90
12957;DHT22;6543;48.836;10.092;2022-08-19T00:39:04;18.70;99.90
12957;DHT22;6543;48.836;10.092;2022-08-19T00:41:31;18.70;99.90
12957;DHT22;6543;48.836;10.092;2022-08-19T00:43:59;18.60;99.90
12957;DHT22;6543;48.836;10.092;2022-08-19T00:46:28;18.60;99.90
12957;DHT22;6543;48.836;10.092;2022-08-19T00:48:56;18.60;99.90
12957;DHT22;6543;48.836;10.092;2022-08-19T00:51:24;18.50;99.90
12957;DHT22;6543;48.836;10.092;2022-08-19T00:53:52;18.50;99.90
12957;DHT22;6543;48.836;10.092;2022-08-19T00:56:19;18.50;99.90
12957;DHT22;6543;48.836;10.092;2022-08-19T00:58:46;18.50;99.90
12957;DHT22;6543;48.836;10.092;2022-08-19T01:01:13;18.50;99.90
12957;DHT22;6543;48.836;10.092;2022-08-19T01:03:41;18.50;99.90
12957;DHT22;6543;48.836;10.092;2022-08-19T01:06:08;18.40;99.90
12957;DHT22;6543;48.836;10.092;2022-08-19T01:08:35;18.40;99.90
12957;DHT22;6543;48.836;10.092;2022-08-19T01:11:02;18.40;99.90
12957;DHT22;6543;48.836;10.092;2022-08-19T01:13:32;18.40;99.90
12957;DHT22;6543;48.836;10.092;2022-08-19T01:16:02;18.30;99.90
12957;DHT22;6543;48.836;10.092;2022-08-19T01:18:30;18.30;99.90
12957;DHT22;6543;48.836;10.092;2022-08-19T01:21:05;18.30;99.90
12957;DHT22;6543;48.836;10.092;2022-08-19T01:23:35;18.30;99.90
12957;DHT22;6543;48.836;10.092;2022-08-19T01:26:13;18.30;99.90
12957;DHT22;6543;48.836;10.092;2022-08-19T01:28:42;18.30;99.90
12957;DHT22;6543;48.836;10.092;2022-08-19T01:31:12;18.30;99.90
12957;DHT22;6543;48.836;10.092;2022-08-19T01:33:39;18.30;99.90
12957;DHT22;6543;48.836;10.092;2022-08-19T01:36:10;18.30;99.90
12957;DHT22;6543;48.836;10.092;2022-08-19T01:38:42;18.30;99.90
12957;DHT22;6543;48.836;10.092;2022-08-19T01:41:10;18.30;99.90
12957;DHT22;6543;48.836;10.092;2022-08-19T01:43:38;18.40;99.90
12957;DHT22;6543;48.836;10.092;2022-08-19T01:46:05;18.40;99.90
12957;DHT22;6543;48.836;10.092;2022-08-19T01:48:34;18.30;99.90
12957;DHT22;6543;48.836;10.092;2022-08-19T01:51:01;18.30;99.90
12957;DHT22;6543;48.836;10.092;2022-08-19T01:53:28;18.30;99.90
12957;DHT22;6543;48.836;10.092;2022-08-19T01:55:57;18.30;99.90
12957;DHT22;6543;48.836;10.092;2022-08-19T01:58:27;18.30;99.90
12957;DHT22;6543;48.836;10.092;2022-08-19T02:00:56;18.20;99.90
12957;DHT22;6543;48.836;10.092;2022-08-19T02:03:24;18.20;99.90
12957;DHT22;6543;48.836;10.092;2022-08-19T02:05:55;18.20;99.90
12957;DHT22;6543;48.836;10.092;2022-08-19T02:08:22;18.20;99.90
12957;DHT22;6543;48.836;10.092;2022-08-19T02:10:49;18.30;99.90
12957;DHT22;6543;48.836;10.092;2022-08-19T02:13:18;18.30;99.90
12957;DHT22;6543;48.836;10.092;2022-08-19T02:15:45;18.30;99.90
12957;DHT22;6543;48.836;10.092;2022-08-19T02:18:12;18.20;99.90
12957;DHT22;6543;48.836;10.092;2022-08-19T02:20:41;18.30;99.90
12957;DHT22;6543;48.836;10.092;2022-08-19T02:23:08;18.30;99.90
12957;DHT22;6543;48.836;10.092;2022-08-19T02:25:35;18.20;99.90
12957;DHT22;6543;48.836;10.092;2022-08-19T02:28:03;18.20;99.90
12957;DHT22;6543;48.836;10.092;2022-08-19T02:30:31;18.20;99.90
12957;DHT22;6543;48.836;10.092;2022-08-19T02:32:59;18.20;99.90
12957;DHT22;6543;48.836;10.092;2022-08-19T02:35:26;18.20;99.90
12957;DHT22;6543;48.836;10.092;2022-08-19T02:37:53;18.30;99.90
12957;DHT22;6543;48.836;10.092;2022-08-19T02:40:37;18.30;99.90
12957;DHT22;6543;48.836;10.092;2022-08-19T02:43:06;18.30;99.90
12957;DHT22;6543;48.836;10.092;2022-08-19T02:45:37;18.30;99.90
12957;DHT22;6543;48.836;10.092;2022-08-19T02:48:04;18.30;99.90
12957;DHT22;6543;48.836;10.092;2022-08-19T02:50:31;18.40;99.90
12957;DHT22;6543;48.836;10.092;2022-08-19T02:52:58;18.30;99.90
12957;DHT22;6543;48.836;10.092;2022-08-19T02:55:25;18.30;99.90
12957;DHT22;6543;48.836;10.092;2022-08-19T02:57:52;18.30;99.90
12957;DHT22;6543;48.836;10.092;2022-08-19T03:00:19;18.30;99.90
12957;DHT22;6543;48.836;10.092;2022-08-19T03:02:48;18.40;99.90
12957;DHT22;6543;48.836;10.092;2022-08-19T03:05:15;18.40;99.90
12957;DHT22;6543;48.836;10.092;2022-08-19T03:07:42;18.40;99.90
12957;DHT22;6543;48.836;10.092;2022-08-19T03:10:09;18.40;99.90
12957;DHT22;6543;48.836;10.092;2022-08-19T03:12:37;18.40;99.90
12957;DHT22;6543;48.836;10.092;2022-08-19T03:15:05;18.30;99.90
12957;DHT22;6543;48.836;10.092;2022-08-19T03:17:33;18.20;99.90
12957;DHT22;6543;48.836;10.092;2022-08-19T03:20:02;18.20;99.90
12957;DHT22;6543;48.836;10.092;2022-08-19T03:22:29;18.20;99.90
12957;DHT22;6543;48.836;10.092;2022-08-19T03:24:56;18.20;99.90
12957;DHT22;6543;48.836;10.092;2022-08-19T03:27:23;18.20;99.90
12957;DHT22;6543;48.836;10.092;2022-08-19T03:29:49;18.10;99.90
12957;DHT22;6543;48.836;10.092;2022-08-19T03:32:17;18.00;99.90
12957;DHT22;6543;48.836;10.092;2022-08-19T03:34:44;18.00;99.90
12957;DHT22;6543;48.836;10.092;2022-08-19T03:37:12;18.00;99.90
12957;DHT22;6543;48.836;10.092;2022-08-19T03:39:40;17.90;99.90
12957;DHT22;6543;48.836;10.092;2022-08-19T03:42:08;18.00;99.90
12957;DHT22;6543;48.836;10.092;2022-08-19T03:44:35;17.90;99.90
12957;DHT22;6543;48.836;10.092;2022-08-19T03:47:03;17.80;99.90
12957;DHT22;6543;48.836;10.092;2022-08-19T03:49:32;17.70;99.90
12957;DHT22;6543;48.836;10.092;2022-08-19T03:52:00;17.70;99.90
12957;DHT22;6543;48.836;10.092;2022-08-19T03:54:29;17.70;99.90
12957;DHT22;6543;48.836;10.092;2022-08-19T03:56:57;17.70;99.90
12957;DHT22;6543;48.836;10.092;2022-08-19T03:59:26;17.60;99.90
12957;DHT22;6543;48.836;10.092;2022-08-19T04:01:54;17.60;99.90
12957;DHT22;6543;48.836;10.092;2022-08-19T04:04:21;17.60;99.90
12957;DHT22;6543;48.836;10.092;2022-08-19T04:06:48;17.60;99.90
12957;DHT22;6543;48.836;10.092;2022-08-19T04:09:16;17.60;99.90
12957;DHT22;6543;48.836;10.092;2022-08-19T04:11:46;17.60;99.90
12957;DHT22;6543;48.836;10.092;2022-08-19T04:14:15;17.60;99.90
12957;DHT22;6543;48.836;10.092;2022-08-19T04:16:44;17.70;99.90
12957;DHT22;6543;48.836;10.092;2022-08-19T04:19:13;17.70;99.90
12957;DHT22;6543;48.836;10.092;2022-08-19T04:21:42;17.60;99.90
12957;DHT22;6543;48.836;10.092;2022-08-19T04:24:10;17.60;99.90
12957;DHT22;6543;48.836;10.092;2022-08-19T04:26:37;17.60;99.90
12957;DHT22;6543;48.836;10.092;2022-08-19T04:29:08;17.70;99.90
12957;DHT22;6543;48.836;10.092;2022-08-19T04:31:35;17.60;99.90
12957;DHT22;6543;48.836;10.092;2022-08-19T04:34:05;17.60;99.90
12957;DHT22;6543;48.836;10.092;2022-08-19T04:36:35;17.70;99.90
12957;DHT22;6543;48.836;10.092;2022-08-19T04:39:05;17.70;99.90
12957;DHT22;6543;48.836;10.092;2022-08-19T04:41:32;17.70;99.90
12957;DHT22;6543;48.836;10.092;2022-08-19T04:44:18;17.70;99.90
12957;DHT22;6543;48.836;10.092;2022-08-19T04:46:45;17.70;99.90
12957;DHT22;6543;48.836;10.092;2022-08-19T04:49:14;17.70;99.90
12957;DHT22;6543;48.836;10.092;2022-08-19T04:51:43;17.80;99.90
12957;DHT22;6543;48.836;10.092;2022-08-19T04:54:11;17.80;99.90
12957;DHT22;6543;48.836;10.092;2022-08-19T04:56:39;17.80;99.90
12957;DHT22;6543;48.836;10.092;2022-08-19T04:59:07;17.80;99.90
12957;DHT22;6543;48.836;10.092;2022-08-19T05:01:35;17.90;99.90
12957;DHT22;6543;48.836;10.092;2022-08-19T05:04:05;17.90;99.90
12957;DHT22;6543;48.836;10.092;2022-08-19T05:06:33;17.90;99.90
12957;DHT22;6543;48.836;10.092;2022-08-19T05:09:02;17.90;99.90
12957;DHT22;6543;48.836;10.092;2022-08-19T05:11:31;17.90;99.90
12957;DHT22;6543;48.836;10.092;2022-08-19T05:13:58;18.00;99.90
12957;DHT22;6543;48.836;10.092;2022-08-19T05:16:26;18.00;99.90
12957;DHT22;6543;48.836;10.092;2022-08-19T05:18:55;18.00;99.90
12957;DHT22;6543;48.836;10.092;2022-08-19T05:21:40;18.00;99.90
12957;DHT22;6543;48.836;10.092;2022-08-19T05:24:25;18.00;99.90
12957;DHT22;6543;48.836;10.092;2022-08-19T05:26:53;18.00;99.90
12957;DHT22;6543;48.836;10.092;2022-08-19T05:29:23;18.10;99.90
12957;DHT22;6543;48.836;10.092;2022-08-19T05:31:51;18.10;99.90
12957;DHT22;6543;48.836;10.092;2022-08-19T05:34:20;18.10;99.90
12957;DHT22;6543;48.836;10.092;2022-08-19T05:36:51;18.20;99.90
12957;DHT22;6543;48.836;10.092;2022-08-19T05:39:23;18.20;99.90
12957;DHT22;6543;48.836;10.092;2022-08-19T05:41:53;18.20;99.90
12957;DHT22;6543;48.836;10.092;2022-08-19T05:44:23;18.20;99.90
12957;DHT22;6543;48.836;10.092;2022-08-19T05:46:50;18.30;99.90
12957;DHT22;6543;48.836;10.092;2022-08-19T05:49:22;18.30;99.90
12957;DHT22;6543;48.836;10.092;2022-08-19T05:51:49;18.30;99.90
12957;DHT22;6543;48.836;10.092;2022-08-19T05:54:16;18.30;99.90
12957;DHT22;6543;48.836;10.092;2022-08-19T05:56:44;18.30;99.90
12957;DHT22;6543;48.836;10.092;2022-08-19T05:59:15;18.20;99.90
12957;DHT22;6543;48.836;10.092;2022-08-19T06:01:44;18.20;99.90
12957;DHT22;6543;48.836;10.092;2022-08-19T06:04:12;18.20;99.90
12957;DHT22;6543;48.836;10.092;2022-08-19T06:06:41;18.30;99.90
12957;DHT22;6543;48.836;10.092;2022-08-19T06:09:08;18.30;99.90
12957;DHT22;6543;48.836;10.092;2022-08-19T06:11:38;18.40;99.90
12957;DHT22;6543;48.836;10.092;2022-08-19T06:14:09;18.40;99.90
12957;DHT22;6543;48.836;10.092;2022-08-19T06:16:36;18.40;99.90
12957;DHT22;6543;48.836;10.092;2022-08-19T06:19:06;18.50;99.90
12957;DHT22;6543;48.836;10.092;2022-08-19T06:21:35;18.40;99.90
12957;DHT22;6543;48.836;10.092;2022-08-19T06:24:05;18.50;99.90
12957;DHT22;6543;48.836;10.092;2022-08-19T06:26:33;18.40;99.90
12957;DHT22;6543;48.836;10.092;2022-08-19T06:29:02;18.40;99.90
12957;DHT22;6543;48.836;10.092;2022-08-19T06:31:30;18.30;99.90
12957;DHT22;6543;48.836;10.092;2022-08-19T06:33:59;18.30;99.90
12957;DHT22;6543;48.836;10.092;2022-08-19T06:36:29;18.40;99.90
12957;DHT22;6543;48.836;10.092;2022-08-19T06:38:57;18.60;99.90
12957;DHT22;6543;48.836;10.092;2022-08-19T06:41:25;19.10;99.90
12957;DHT22;6543;48.836;10.092;2022-08-19T06:43:53;19.00;99.90
12957;DHT22;6543;48.836;10.092;2022-08-19T06:46:21;18.90;99.90
12957;DHT22;6543;48.836;10.092;2022-08-19T06:48:48;19.10;99.90
12957;DHT22;6543;48.836;10.092;2022-08-19T06:51:16;18.90;99.90
12957;DHT22;6543;48.836;10.092;2022-08-19T06:53:44;18.60;99.90
12957;DHT22;6543;48.836;10.092;2022-08-19T06:56:13;18.60;99.90
12957;DHT22;6543;48.836;10.092;2022-08-19T06:58:42;18.50;99.90
12957;DHT22;6543;48.836;10.092;2022-08-19T07:01:09;18.70;99.90
12957;DHT22;6543;48.836;10.092;2022-08-19T07:03:37;18.90;99.90
12957;DHT22;6543;48.836;10.092;2022-08-19T07:06:06;19.00;99.90
12957;DHT22;6543;48.836;10.092;2022-08-19T07:08:36;18.70;99.90
12957;DHT22;6543;48.836;10.092;2022-08-19T07:11:07;18.60;99.90
12957;DHT22;6543;48.836;10.092;2022-08-19T07:13:33;18.70;99.90
12957;DHT22;6543;48.836;10.092;2022-08-19T07:16:05;18.70;99.90
12957;DHT22;6543;48.836;10.092;2022-08-19T07:18:32;18.80;99.90
12957;DHT22;6543;48.836;10.092;2022-08-19T07:21:03;18.70;99.90
12957;DHT22;6543;48.836;10.092;2022-08-19T07:23:30;18.60;99.90
12957;DHT22;6543;48.836;10.092;2022-08-19T07:25:57;18.60;99.90
12957;DHT22;6543;48.836;10.092;2022-08-19T07:28:24;18.60;99.90
12957;DHT22;6543;48.836;10.092;2022-08-19T07:30:51;18.80;99.90
12957;DHT22;6543;48.836;10.092;2022-08-19T07:33:20;18.80;99.90
12957;DHT22;6543;48.836;10.092;2022-08-19T07:35:47;18.80;99.90
12957;DHT22;6543;48.836;10.092;2022-08-19T07:38:15;18.80;99.90
12957;DHT22;6543;48.836;10.092;2022-08-19T07:40:44;18.80;99.90
12957;DHT22;6543;48.836;10.092;2022-08-19T07:43:11;18.70;99.90
12957;DHT22;6543;48.836;10.092;2022-08-19T07:45:38;18.60;99.90
12957;DHT22;6543;48.836;10.092;2022-08-19T07:48:05;18.50;99.90
12957;DHT22;6543;48.836;10.092;2022-08-19T07:50:34;18.60;99.90
12957;DHT22;6543;48.836;10.092;2022-08-19T07:53:01;18.50;99.90
12957;DHT22;6543;48.836;10.092;2022-08-19T07:55:27;18.70;99.90
12957;DHT22;6543;48.836;10.092;2022-08-19T07:57:54;18.90;99.90
12957;DHT22;6543;48.836;10.092;2022-08-19T08:00:21;18.80;99.90
12957;DHT22;6543;48.836;10.092;2022-08-19T08:02:48;19.00;99.90
12957;DHT22;6543;48.836;10.092;2022-08-19T08:05:15;19.10;99.90
12957;DHT22;6543;48.836;10.092;2022-08-19T08:08:01;18.90;99.90
12957;DHT22;6543;48.836;10.092;2022-08-19T08:10:46;18.90;99.90
12957;DHT22;6543;48.836;10.092;2022-08-19T08:13:12;19.10;99.90
12957;DHT22;6543;48.836;10.092;2022-08-19T08:15:40;19.10;99.90
12957;DHT22;6543;48.836;10.092;2022-08-19T08:18:07;19.30;99.90
12957;DHT22;6543;48.836;10.092;2022-08-19T08:20:33;19.30;99.90
12957;DHT22;6543;48.836;10.092;2022-08-19T08:23:02;19.40;99.90
12957;DHT22;6543;48.836;10.092;2022-08-19T08:25:46;19.50;99.90
12957;DHT22;6543;48.836;10.092;2022-08-19T08:28:14;19.40;99.90
12957;DHT22;6543;48.836;10.092;2022-08-19T08:30:41;19.20;99.90
12957;DHT22;6543;48.836;10.092;2022-08-19T08:33:09;19.20;99.90
12957;DHT22;6543;48.836;10.092;2022-08-19T08:35:36;19.20;99.90
12957;DHT22;6543;48.836;10.092;2022-08-19T08:38:05;19.40;99.90
12957;DHT22;6543;48.836;10.092;2022-08-19T08:40:39;19.70;99.90
12957;DHT22;6543;48.836;10.092;2022-08-19T08:43:16;20.00;99.90
12957;DHT22;6543;48.836;10.092;2022-08-19T11:45:02;17.90;99.90
12957;DHT22;6543;48.836;10.092;2022-08-19T11:47:30;18.10;99.90
12957;DHT22;6543;48.836;10.092;2022-08-19T11:49:57;18.20;99.90
12957;DHT22;6543;48.836;10.092;2022-08-19T11:52:24;18.00;99.90
12957;DHT22;6543;48.836;10.092;2022-08-19T11:54:52;18.00;99.90
12957;DHT22;6543;48.836;10.092;2022-08-19T12:36:55;17.70;99.90
12957;DHT22;6543;48.836;10.092;2022-08-19T12:46:46;18.00;99.90
12957;DHT22;6543;48.836;10.092;2022-08-19T12:51:42;18.30;99.90
12957;DHT22;6543;48.836;10.092;2022-08-19T12:54:09;18.30;99.90
12957;DHT22;6543;48.836;10.092;2022-08-19T12:56:36;18.30;99.90
12957;DHT22;6543;48.836;10.092;2022-08-19T12:59:04;18.10;99.90
12957;DHT22;6543;48.836;10.092;2022-08-19T13:01:32;18.20;99.90
12957;DHT22;6543;48.836;10.092;2022-08-19T13:16:20;18.10;99.90
12957;DHT22;6543;48.836;10.092;2022-08-19T13:18:48;18.00;99.90
12957;DHT22;6543;48.836;10.092;2022-08-19T13:21:19;18.00;99.90
12957;DHT22;6543;48.836;10.092;2022-08-19T13:23:49;17.90;99.90
12957;DHT22;6543;48.836;10.092;2022-08-19T13:26:16;17.80;99.90
12957;DHT22;6543;48.836;10.092;2022-08-19T13:28:44;17.60;99.90
12957;DHT22;6543;48.836;10.092;2022-08-19T13:31:33;17.70;99.90
12957;DHT22;6543;48.836;10.092;2022-08-19T14:08:55;18.10;99.90
12957;DHT22;6543;48.836;10.092;2022-08-19T14:21:17;17.60;99.90
12957;DHT22;6543;48.836;10.092;2022-08-19T14:31:17;17.50;99.90
12957;DHT22;6543;48.836;10.092;2022-08-19T14:43:38;17.50;99.90
12957;DHT22;6543;48.836;10.092;2022-08-19T15:30:47;18.10;99.90
12957;DHT22;6543;48.836;10.092;2022-08-19T15:33:15;17.60;99.90
12957;DHT22;6543;48.836;10.092;2022-08-19T16:33:32;18.60;99.90
12957;DHT22;6543;48.836;10.092;2022-08-19T16:35:59;18.70;99.90
12957;DHT22;6543;48.836;10.092;2022-08-19T16:38:27;18.60;99.90
12957;DHT22;6543;48.836;10.092;2022-08-19T17:42:29;19.00;99.90
12957;DHT22;6543;48.836;10.092;2022-08-19T18:14:32;18.40;99.90
12957;DHT22;6543;48.836;10.092;2022-08-19T18:17:01;19.10;99.90
12957;DHT22;6543;48.836;10.092;2022-08-19T18:19:30;18.90;99.90
12957;DHT22;6543;48.836;10.092;2022-08-19T18:44:40;19.10;99.90
12957;DHT22;6543;48.836;10.092;2022-08-19T18:57:35;19.30;99.90
12957;DHT22;6543;48.836;10.092;2022-08-19T19:02:35;19.40;99.90
12957;DHT22;6543;48.836;10.092;2022-08-19T19:49:33;19.40;99.90
12957;DHT22;6543;48.836;10.092;2022-08-19T19:59:25;19.20;99.90
12957;DHT22;6543;48.836;10.092;2022-08-19T20:01:52;19.20;99.90
12957;DHT22;6543;48.836;10.092;2022-08-19T20:04:19;19.10;99.90
12957;DHT22;6543;48.836;10.092;2022-08-19T20:06:47;19.40;99.90
12957;DHT22;6543;48.836;10.092;2022-08-19T20:19:12;19.10;99.90
12957;DHT22;6543;48.836;10.092;2022-08-19T20:21:40;19.40;99.90
12957;DHT22;6543;48.836;10.092;2022-08-19T20:24:11;19.50;99.90
12957;DHT22;6543;48.836;10.092;2022-08-19T20:26:38;19.20;99.90
12957;DHT22;6543;48.836;10.092;2022-08-19T20:29:06;19.40;99.90
12957;DHT22;6543;48.836;10.092;2022-08-19T20:34:00;19.10;99.90
12957;DHT22;6543;48.836;10.092;2022-08-19T21:01:04;19.20;99.90
12957;DHT22;6543;48.836;10.092;2022-08-19T22:39:51;19.00;99.90
12957;DHT22;6543;48.836;10.092;2022-08-19T23:54:27;19.30;99.90
